Time;durP1;ratioP1;P1;durP2;ratioP2;P2;SDS_P1;SDS_P2;PMS_P1;PMS_P2;Temp;Humidity;BMP_temperature;BMP_pressure;BME280_temperature;BME280_humidity;BME280_pressure;Samples;Min_cycle;Max_cycle;Signal;HPM_P1;HPM_P2
2022/10/04 00:01:45;;;;;;;19.42;8.07;;;;;;;;;;5039449;28;20738;-65
2022/10/04 00:04:15;;;;;;;18.02;8.55;;;;;;;;;;5032384;28;20045;-65
2022/10/04 00:06:51;;;;;;;16.05;7.30;;;;;;;;;;5050226;28;20165;-65
2022/10/04 00:09:22;;;;;;;15.20;8.02;;;;;;;;;;5031474;28;20041;-65
2022/10/04 00:11:49;;;;;;;14.63;8.52;;;;;;;;;;5032447;28;20055;-65
2022/10/04 00:14:27;;;;;;;14.68;7.88;;;;;;;;;;5032357;28;20829;-65
2022/10/04 00:16:54;;;;;;;16.67;7.88;;;;;;;;;;5049838;28;20037;-65
2022/10/04 00:19:20;;;;;;;20.67;8.52;;;;;;;;;;5032349;28;20095;-65
2022/10/04 00:21:52;;;;;;;13.77;7.88;;;;;;;;;;5032301;28;20045;-65
2022/10/04 00:24:34;;;;;;;21.77;8.38;;;;;;;;;;5050012;28;20091;-65
2022/10/04 00:27:19;;;;;;;17.23;8.32;;;;;;;;;;5032248;28;20068;-65
2022/10/04 00:30:00;;;;;;;16.63;8.57;;;;;;;;;;5031890;28;20091;-65
2022/10/04 00:32:28;;;;;;;21.42;9.23;;;;;;;;;;5032148;28;20041;-65
2022/10/04 00:34:55;;;;;;;20.35;9.20;;;;;;;;;;5032181;28;20048;-65
2022/10/04 00:37:21;;;;;;;15.10;8.30;;;;;;;;;;5050062;28;20482;-65
2022/10/04 00:40:02;;;;;;;18.63;8.52;;;;;;;;;;5050003;28;20037;-65
2022/10/04 00:42:35;;;;;;;14.32;9.05;;;;;;;;;;5015721;28;20506;-65
2022/10/04 00:45:01;;;;;;;11.80;8.15;;;;;;;;;;5031451;28;20122;-65
2022/10/04 00:47:33;;;;;;;20.40;9.27;;;;;;;;;;5031824;28;20099;-65
2022/10/04 00:50:08;;;;;;;15.10;8.50;;;;;;;;;;5031716;28;20467;-65
2022/10/04 00:52:36;;;;;;;15.82;8.15;;;;;;;;;;5032478;28;20037;-65
2022/10/04 00:55:05;;;;;;;15.57;8.32;;;;;;;;;;5035356;28;20552;-65
2022/10/04 00:57:38;;;;;;;15.43;8.43;;;;;;;;;;5035449;28;20118;-65
2022/10/04 01:00:07;;;;;;;18.63;8.63;;;;;;;;;;5035078;28;20127;-65
2022/10/04 01:02:43;;;;;;;14.35;8.45;;;;;;;;;;5018839;28;20067;-65
2022/10/04 01:05:10;;;;;;;18.00;8.93;;;;;;;;;;5035245;28;20449;-65
2022/10/04 01:07:38;;;;;;;19.92;8.52;;;;;;;;;;5053074;28;20037;-65
2022/10/04 01:10:13;;;;;;;21.15;8.45;;;;;;;;;;5053212;28;20503;-65
2022/10/04 01:12:57;;;;;;;21.27;9.02;;;;;;;;;;5035236;28;20060;-65
2022/10/04 01:15:23;;;;;;;14.52;7.97;;;;;;;;;;5034680;28;20044;-65
2022/10/04 01:18:08;;;;;;;17.90;8.50;;;;;;;;;;5018606;28;20093;-65
2022/10/04 01:20:36;;;;;;;13.88;8.30;;;;;;;;;;5035472;28;20463;-65
2022/10/04 01:23:03;;;;;;;15.98;8.88;;;;;;;;;;5034955;28;20036;-65
2022/10/04 01:25:44;;;;;;;14.15;7.72;;;;;;;;;;5034845;28;20091;-65
2022/10/04 01:28:10;;;;;;;19.77;9.07;;;;;;;;;;5052666;28;20116;-65
2022/10/04 01:30:36;;;;;;;16.67;8.85;;;;;;;;;;5034578;28;20165;-65
2022/10/04 01:33:05;;;;;;;18.95;9.48;;;;;;;;;;5052718;28;20073;-65
2022/10/04 01:35:34;;;;;;;21.08;8.90;;;;;;;;;;5052684;28;20063;-65
2022/10/04 01:38:00;;;;;;;17.90;9.15;;;;;;;;;;5034426;28;20040;-65
2022/10/04 01:40:27;;;;;;;18.92;8.73;;;;;;;;;;5034619;28;20067;-65
2022/10/04 01:42:56;;;;;;;12.95;8.48;;;;;;;;;;5034332;28;20614;-65
2022/10/04 01:45:49;;;;;;;16.45;8.98;;;;;;;;;;5034164;28;20045;-65
2022/10/04 01:48:15;;;;;;;;;;;;;;;;;;5031687;28;20475;-65
2022/10/04 01:50:44;;;;;;;18.40;9.48;;;;;;;;;;5034375;28;19916;-65
2022/10/04 01:53:10;;;;;;;18.13;9.60;;;;;;;;;;5034328;28;20045;-65
2022/10/04 01:55:36;;;;;;;16.55;9.40;;;;;;;;;;5034554;28;20040;-65
2022/10/04 01:58:08;;;;;;;18.13;9.35;;;;;;;;;;5034389;28;20668;-65
2022/10/04 02:00:36;;;;;;;16.13;9.25;;;;;;;;;;5034107;28;20041;-65
2022/10/04 02:03:10;;;;;;;17.50;9.23;;;;;;;;;;5034043;28;20048;-65
2022/10/04 02:05:42;;;;;;;15.80;8.80;;;;;;;;;;5033269;28;20417;-65
2022/10/04 02:08:10;;;;;;;17.92;9.65;;;;;;;;;;5033647;28;20200;-65
2022/10/04 02:10:37;;;;;;;21.38;9.32;;;;;;;;;;5034095;28;20059;-65
2022/10/04 02:13:05;;;;;;;19.15;9.88;;;;;;;;;;5034066;28;20537;-65
2022/10/04 02:15:31;;;;;;;20.85;9.60;;;;;;;;;;5033622;28;20052;-65
2022/10/04 02:17:58;;;;;;;21.45;10.32;;;;;;;;;;5033853;28;20040;-65
2022/10/04 02:20:26;;;;;;;21.65;10.05;;;;;;;;;;5051869;28;20101;-65
2022/10/04 02:22:58;;;;;;;13.90;9.18;;;;;;;;;;5033425;28;20040;-65
2022/10/04 02:25:25;;;;;;;16.90;8.82;;;;;;;;;;5033910;28;20056;-65
2022/10/04 02:27:54;;;;;;;16.08;9.75;;;;;;;;;;5033818;28;20080;-65
2022/10/04 02:30:21;;;;;;;16.80;9.35;;;;;;;;;;5033197;28;20064;-65
2022/10/04 02:32:56;;;;;;;18.58;8.93;;;;;;;;;;5051918;28;20037;-65
2022/10/04 02:35:23;;;;;;;18.25;9.63;;;;;;;;;;5033507;28;20048;-65
2022/10/04 02:37:53;;;;;;;21.88;10.00;;;;;;;;;;5051277;28;20140;-65
2022/10/04 02:40:22;;;;;;;15.43;9.27;;;;;;;;;;5051770;28;20114;-65
2022/10/04 02:42:54;;;;;;;14.23;8.70;;;;;;;;;;5033455;28;20059;-65
2022/10/04 02:45:37;;;;;;;17.45;9.70;;;;;;;;;;5033400;28;20499;-65
2022/10/04 02:48:16;;;;;;;23.52;9.80;;;;;;;;;;5033137;28;20045;-65
2022/10/04 02:50:48;;;;;;;16.92;9.85;;;;;;;;;;5033153;28;20040;-65
2022/10/04 02:53:14;;;;;;;13.35;8.95;;;;;;;;;;5033203;28;20045;-65
2022/10/04 02:55:41;;;;;;;15.50;9.38;;;;;;;;;;5033083;28;20045;-65
2022/10/04 02:58:13;;;;;;;19.30;9.63;;;;;;;;;;5032801;28;20045;-65
2022/10/04 03:00:46;;;;;;;19.42;10.18;;;;;;;;;;5051010;28;20124;-65
2022/10/04 03:03:24;;;;;;;17.88;10.20;;;;;;;;;;5033333;28;20131;-65
2022/10/04 03:05:53;;;;;;;18.85;9.73;;;;;;;;;;5050720;28;20045;-65
2022/10/04 03:08:19;;;;;;;18.33;9.52;;;;;;;;;;5050956;28;20098;-65
2022/10/04 03:10:45;;;;;;;14.55;9.48;;;;;;;;;;5032799;28;20056;-65
2022/10/04 03:13:12;;;;;;;21.42;10.00;;;;;;;;;;5032528;28;20103;-65
2022/10/04 03:15:39;;;;;;;15.50;9.43;;;;;;;;;;5050849;28;20045;-65
2022/10/04 03:18:05;;;;;;;18.15;10.43;;;;;;;;;;5032712;28;20049;-65
2022/10/04 03:20:35;;;;;;;20.27;9.77;;;;;;;;;;5050335;28;20535;-65
2022/10/04 03:23:01;;;;;;;18.85;9.80;;;;;;;;;;5032979;28;20043;-65
2022/10/04 03:25:35;;;;;;;22.27;9.98;;;;;;;;;;5050875;28;20460;-65
2022/10/04 03:28:02;;;;;;;15.93;9.80;;;;;;;;;;5032420;28;20045;-65
2022/10/04 03:30:28;;;;;;;15.80;8.98;;;;;;;;;;5032829;28;20036;-65
2022/10/04 03:32:55;;;;;;;15.80;10.05;;;;;;;;;;5050849;28;20143;-65
2022/10/04 03:35:30;;;;;;;18.02;8.80;;;;;;;;;;5050326;28;20551;-65
2022/10/04 03:37:57;;;;;;;17.67;10.02;;;;;;;;;;5050725;28;20488;-65
2022/10/04 03:40:28;;;;;;;16.00;9.25;;;;;;;;;;5032476;28;20249;-65
2022/10/04 03:42:55;;;;;;;19.30;9.00;;;;;;;;;;5050467;28;20044;-65
2022/10/04 03:45:22;;;;;;;17.38;9.75;;;;;;;;;;5050764;28;20045;-65
2022/10/04 03:47:49;;;;;;;18.15;9.18;;;;;;;;;;5016299;28;20152;-65
2022/10/04 03:50:26;;;;;;;18.05;9.82;;;;;;;;;;5031935;28;20118;-65
2022/10/04 03:53:03;;;;;;;18.33;9.45;;;;;;;;;;5032796;28;20063;-65
2022/10/04 03:55:55;;;;;;;21.85;9.40;;;;;;;;;;5032138;28;20049;-65
2022/10/04 03:58:22;;;;;;;18.85;9.55;;;;;;;;;;5028164;28;20143;-65
2022/10/04 04:01:07;;;;;;;18.10;10.05;;;;;;;;;;5050559;28;20041;-65
2022/10/04 04:03:41;;;;;;;18.52;9.75;;;;;;;;;;5032485;28;20037;-65
2022/10/04 04:06:11;;;;;;;20.20;10.02;;;;;;;;;;5049910;28;20044;-65
2022/10/04 04:08:40;;;;;;;18.70;9.65;;;;;;;;;;5050355;28;20036;-65
2022/10/04 04:11:10;;;;;;;21.05;10.77;;;;;;;;;;5049980;28;20053;-65
2022/10/04 04:13:55;;;;;;;15.25;9.63;;;;;;;;;;5050040;28;20414;-65
2022/10/04 04:16:27;;;;;;;20.85;9.98;;;;;;;;;;5032422;28;20099;-65
2022/10/04 04:18:54;;;;;;;27.13;11.23;;;;;;;;;;5032087;28;20055;-65
2022/10/04 04:21:23;;;;;;;16.90;10.02;;;;;;;;;;5031776;28;20415;-65
2022/10/04 04:23:59;;;;;;;19.42;10.65;;;;;;;;;;5050277;28;20044;-65
2022/10/04 04:26:28;;;;;;;16.52;10.30;;;;;;;;;;5032095;28;20424;-65
2022/10/04 04:28:57;;;;;;;19.85;11.00;;;;;;;;;;5034639;28;20477;-65
2022/10/04 04:31:35;;;;;;;20.60;10.65;;;;;;;;;;5035941;28;20375;-65
2022/10/04 04:34:14;;;;;;;22.00;10.90;;;;;;;;;;5053771;28;20055;-65
2022/10/04 04:36:40;;;;;;;16.40;10.50;;;;;;;;;;5035785;28;20048;-65
2022/10/04 04:39:40;;;;;;;20.92;11.00;;;;;;;;;;5035652;28;20041;-65
2022/10/04 04:42:33;;;;;;;17.92;11.15;;;;;;;;;;5035764;28;20052;-65
2022/10/04 04:45:06;;;;;;;18.20;11.57;;;;;;;;;;5019401;28;20053;-65
2022/10/04 04:47:32;;;;;;;23.08;11.45;;;;;;;;;;5036113;28;20447;-65
2022/10/04 04:50:03;;;;;;;19.40;11.27;;;;;;;;;;5035151;28;20782;-65
2022/10/04 04:52:30;;;;;;;27.50;12.05;;;;;;;;;;5035556;28;20048;-65
2022/10/04 04:54:56;;;;;;;18.55;11.00;;;;;;;;;;5053392;28;20090;-65
2022/10/04 04:57:22;;;;;;;21.55;11.48;;;;;;;;;;5035023;28;20076;-65
2022/10/04 04:59:51;;;;;;;24.70;12.35;;;;;;;;;;5029818;28;20037;-65
2022/10/04 05:02:37;;;;;;;21.85;12.32;;;;;;;;;;5057805;28;20603;-65
2022/10/04 05:05:15;;;;;;;23.85;12.80;;;;;;;;;;5034612;28;20036;-65
2022/10/04 05:07:42;;;;;;;25.23;12.43;;;;;;;;;;5034700;28;20124;-65
2022/10/04 05:10:20;;;;;;;18.38;11.55;;;;;;;;;;5052887;28;20075;-66
2022/10/04 05:12:47;;;;;;;20.48;12.68;;;;;;;;;;5052766;28;20045;-66
2022/10/04 05:15:13;;;;;;;19.02;11.75;;;;;;;;;;5034490;28;20404;-67
2022/10/04 05:17:39;;;;;;;20.85;11.98;;;;;;;;;;5035192;28;20140;-65
2022/10/04 05:20:05;;;;;;;27.70;12.75;;;;;;;;;;5034659;28;20076;-65
2022/10/04 05:22:32;;;;;;;23.70;14.13;;;;;;;;;;5052924;28;20135;-66
2022/10/04 05:25:01;;;;;;;21.17;12.35;;;;;;;;;;5034669;28;20069;-65
2022/10/04 05:27:45;;;;;;;26.13;12.43;;;;;;;;;;5052314;28;20044;-65
2022/10/04 05:30:24;;;;;;;19.67;12.77;;;;;;;;;;5034537;28;20088;-65
2022/10/04 05:32:57;;;;;;;19.80;11.88;;;;;;;;;;5052775;28;20051;-65
2022/10/04 05:35:23;;;;;;;23.30;12.73;;;;;;;;;;5034309;28;20047;-65
2022/10/04 05:37:49;;;;;;;19.25;13.20;;;;;;;;;;5034966;28;20094;-66
2022/10/04 05:40:23;;;;;;;22.38;12.55;;;;;;;;;;5033201;28;20046;-66
2022/10/04 05:42:49;;;;;;;21.35;12.10;;;;;;;;;;5034398;28;20052;-65
2022/10/04 05:45:23;;;;;;;19.80;12.73;;;;;;;;;;5052734;28;20442;-65
2022/10/04 05:47:52;;;;;;;24.80;13.40;;;;;;;;;;5034441;28;20057;-66
2022/10/04 05:50:39;;;;;;;22.45;13.20;;;;;;;;;;5033602;28;20049;-66
2022/10/04 05:53:21;;;;;;;25.30;13.30;;;;;;;;;;5034214;28;20073;-66
2022/10/04 05:55:59;;;;;;;23.33;13.82;;;;;;;;;;5033669;28;20041;-65
2022/10/04 05:58:25;;;;;;;25.13;13.38;;;;;;;;;;5017453;28;20041;-65
2022/10/04 06:00:51;;;;;;;26.10;14.15;;;;;;;;;;5047018;28;20044;-65
2022/10/04 06:03:36;;;;;;;25.40;13.82;;;;;;;;;;5053745;28;20044;-65
2022/10/04 06:06:06;;;;;;;23.05;14.05;;;;;;;;;;5031862;28;20047;-65
2022/10/04 06:08:44;;;;;;;22.67;13.90;;;;;;;;;;5059168;28;20036;-65
2022/10/04 06:11:23;;;;;;;18.92;13.80;;;;;;;;;;5053377;28;20098;-66
2022/10/04 06:14:00;;;;;;;23.85;13.98;;;;;;;;;;5071962;28;20048;-66
2022/10/04 06:16:44;;;;;;;22.77;14.23;;;;;;;;;;5053804;28;20067;-66
2022/10/04 06:19:13;;;;;;;25.92;14.55;;;;;;;;;;5038725;28;20045;-67
2022/10/04 06:21:55;;;;;;;28.60;15.57;;;;;;;;;;5052235;28;20072;-68
2022/10/04 06:24:25;;;;;;;22.27;13.55;;;;;;;;;;5033590;28;20127;-68
2022/10/04 06:26:59;;;;;;;27.25;14.57;;;;;;;;;;5032942;28;20040;-67
2022/10/04 06:29:27;;;;;;;20.05;14.25;;;;;;;;;;5032736;28;20053;-69
2022/10/04 06:31:53;;;;;;;26.60;15.20;;;;;;;;;;5033506;28;20041;-69
2022/10/04 06:34:19;;;;;;;28.42;15.38;;;;;;;;;;5026649;28;20053;-67
2022/10/04 06:36:52;;;;;;;26.88;15.57;;;;;;;;;;5028866;28;20076;-67
2022/10/04 06:39:36;;;;;;;24.85;16.27;;;;;;;;;;5037529;28;20572;-65
2022/10/04 06:42:10;;;;;;;25.35;14.95;;;;;;;;;;5047083;28;20033;-66
2022/10/04 06:44:39;;;;;;;22.98;14.90;;;;;;;;;;5051505;28;20347;-66
2022/10/04 06:47:14;;;;;;;22.88;15.48;;;;;;;;;;5036295;28;20064;-67
2022/10/04 06:49:59;;;;;;;25.73;15.52;;;;;;;;;;5031712;28;20044;-66
2022/10/04 06:52:31;;;;;;;25.35;16.27;;;;;;;;;;5050644;28;20033;-65
2022/10/04 06:55:00;;;;;;;28.30;15.63;;;;;;;;;;5060681;28;20131;-65
2022/10/04 06:57:28;;;;;;;24.77;17.17;;;;;;;;;;5070149;28;20053;-68
2022/10/04 06:59:58;;;;;;;28.77;15.63;;;;;;;;;;5039167;28;20479;-68
2022/10/04 07:02:35;;;;;;;30.38;16.45;;;;;;;;;;5060836;28;20051;-65
2022/10/04 07:05:04;;;;;;;29.02;17.27;;;;;;;;;;5059685;28;20368;-65
2022/10/04 07:07:35;;;;;;;34.28;18.48;;;;;;;;;;5058622;28;20071;-65
2022/10/04 07:10:01;;;;;;;26.60;17.48;;;;;;;;;;5031695;28;20049;-66
2022/10/04 07:12:28;;;;;;;27.90;18.85;;;;;;;;;;5050622;28;20033;-66
2022/10/04 07:14:59;;;;;;;33.30;17.80;;;;;;;;;;5015948;28;20071;-65
2022/10/04 07:17:38;;;;;;;30.25;19.50;;;;;;;;;;5031147;28;20047;-65
2022/10/04 07:20:05;;;;;;;32.00;18.75;;;;;;;;;;5033236;28;20036;-73
2022/10/04 07:22:44;;;;;;;34.17;18.85;;;;;;;;;;5030384;28;20040;-70
2022/10/04 07:25:13;;;;;;;31.85;18.80;;;;;;;;;;5014975;28;20434;-72
2022/10/04 07:30:43;;;;;;;27.02;17.88;;;;;;;;;;5038488;28;20495;-69
2022/10/04 07:33:13;;;;;;;30.65;18.40;;;;;;;;;;5038670;28;20486;-70
2022/10/04 07:35:43;;;;;;;29.60;17.98;;;;;;;;;;5042820;28;20135;-68
2022/10/04 07:38:12;;;;;;;29.45;18.23;;;;;;;;;;5033914;28;20079;-69
2022/10/04 07:40:40;;;;;;;26.23;17.85;;;;;;;;;;5024206;28;20091;-70
2022/10/04 07:43:10;;;;;;;30.88;17.77;;;;;;;;;;5032307;28;20041;-67
2022/10/04 07:45:38;;;;;;;29.02;19.15;;;;;;;;;;5029432;28;20041;-65
2022/10/04 07:48:05;;;;;;;29.20;20.33;;;;;;;;;;5046023;28;20063;-69
2022/10/04 07:50:38;;;;;;;29.65;18.27;;;;;;;;;;5014044;28;20182;-67
2022/10/04 07:53:09;;;;;;;27.58;17.73;;;;;;;;;;5049043;28;20033;-67
2022/10/04 07:55:36;;;;;;;29.92;19.45;;;;;;;;;;5048816;28;20044;-69
2022/10/04 07:58:02;;;;;;;26.45;17.98;;;;;;;;;;5030802;28;20040;-70
2022/10/04 08:00:31;;;;;;;26.50;17.95;;;;;;;;;;5030766;28;20182;-69
2022/10/04 08:03:16;;;;;;;27.65;17.98;;;;;;;;;;5032208;28;20056;-70
2022/10/04 08:05:44;;;;;;;30.52;18.52;;;;;;;;;;5054987;28;20033;-70
2022/10/04 08:08:13;;;;;;;27.67;17.42;;;;;;;;;;5062809;28;20055;-68
2022/10/04 08:10:40;;;;;;;23.05;14.55;;;;;;;;;;5049440;28;20053;-69
2022/10/04 08:13:24;;;;;;;24.15;15.70;;;;;;;;;;5052038;28;20635;-70
2022/10/04 08:15:52;;;;;;;26.05;14.68;;;;;;;;;;5045712;28;20041;-67
2022/10/04 08:18:18;;;;;;;26.83;13.68;;;;;;;;;;5020389;28;20072;-69
2022/10/04 08:20:57;;;;;;;23.95;13.60;;;;;;;;;;5040269;28;20048;-64
2022/10/04 08:23:42;;;;;;;21.88;13.25;;;;;;;;;;5052557;28;20494;-65
2022/10/04 08:26:17;;;;;;;25.95;14.77;;;;;;;;;;5033288;28;20898;-66
2022/10/04 08:32:00;;;;;;;20.88;13.23;;;;;;;;;;5051938;28;20502;-64
2022/10/04 08:34:27;;;;;;;25.25;13.65;;;;;;;;;;5050816;28;20474;-64
2022/10/04 08:37:08;;;;;;;20.83;12.38;;;;;;;;;;5044559;28;20041;-65
2022/10/04 08:39:53;;;;;;;19.75;13.15;;;;;;;;;;5030415;28;20041;-64
2022/10/04 08:42:40;;;;;;;17.25;12.00;;;;;;;;;;5048504;28;20098;-67
2022/10/04 08:45:16;;;;;;;25.70;13.20;;;;;;;;;;5053008;28;20049;-67
2022/10/04 08:47:54;;;;;;;25.38;13.88;;;;;;;;;;5048684;28;20033;-66
2022/10/04 08:50:30;;;;;;;19.55;12.32;;;;;;;;;;5034078;28;20041;-66
2022/10/04 08:52:57;;;;;;;18.08;12.50;;;;;;;;;;5037161;28;20086;-64
2022/10/04 08:55:33;;;;;;;19.42;12.35;;;;;;;;;;5048614;28;20100;-65
2022/10/04 08:58:07;;;;;;;23.83;13.30;;;;;;;;;;5053787;28;20052;-67
2022/10/04 09:00:51;;;;;;;22.27;13.93;;;;;;;;;;5056486;28;20067;-67
2022/10/04 09:03:30;;;;;;;20.83;13.32;;;;;;;;;;5025565;28;20037;-68
2022/10/04 09:06:05;;;;;;;22.50;13.65;;;;;;;;;;5029878;28;20044;-67
2022/10/04 09:08:47;;;;;;;19.40;13.18;;;;;;;;;;5045110;28;20041;-67
2022/10/04 09:11:28;;;;;;;19.88;12.63;;;;;;;;;;5017458;28;20633;-66
2022/10/04 09:14:13;;;;;;;19.10;12.60;;;;;;;;;;5018535;28;20121;-69
2022/10/04 09:16:47;;;;;;;18.17;12.75;;;;;;;;;;4996087;28;20044;-70
2022/10/04 09:19:20;;;;;;;19.13;12.52;;;;;;;;;;5014467;28;20036;-67
2022/10/04 09:21:47;;;;;;;21.23;13.40;;;;;;;;;;5031850;28;20041;-68
2022/10/04 09:24:19;;;;;;;23.60;12.30;;;;;;;;;;5021014;28;20649;-68
2022/10/04 09:26:47;;;;;;;23.00;13.20;;;;;;;;;;5021510;28;20053;-67
2022/10/04 09:29:16;;;;;;;19.75;11.40;;;;;;;;;;5007658;28;20080;-65
2022/10/04 09:31:52;;;;;;;19.20;11.73;;;;;;;;;;5021302;28;20531;-68
2022/10/04 09:34:27;;;;;;;15.00;10.18;;;;;;;;;;5013297;28;20068;-68
2022/10/04 09:37:14;;;;;;;20.83;10.25;;;;;;;;;;5028750;28;20044;-69
2022/10/04 09:39:54;;;;;;;17.67;11.30;;;;;;;;;;5001674;28;20046;-69
2022/10/04 09:42:41;;;;;;;19.67;10.65;;;;;;;;;;5011456;28;20480;-68
2022/10/04 09:45:20;;;;;;;18.17;10.25;;;;;;;;;;5026450;28;20084;-68
2022/10/04 09:47:50;;;;;;;15.38;10.20;;;;;;;;;;5011796;28;20601;-69
2022/10/04 09:50:36;;;;;;;15.85;10.90;;;;;;;;;;5015492;28;20049;-70
2022/10/04 09:53:02;;;;;;;14.68;9.30;;;;;;;;;;5010610;28;20039;-66
2022/10/04 09:55:47;;;;;;;17.08;8.88;;;;;;;;;;5031716;28;20033;-68
2022/10/04 09:58:28;;;;;;;19.27;8.18;;;;;;;;;;5036069;28;20176;-70
2022/10/04 10:01:14;;;;;;;14.00;7.60;;;;;;;;;;4998221;28;20595;-68
2022/10/04 10:04:05;;;;;;;15.65;8.30;;;;;;;;;;5010845;28;20038;-68
2022/10/04 10:06:39;;;;;;;16.02;9.60;;;;;;;;;;5014805;28;20072;-68
2022/10/04 10:09:08;;;;;;;14.35;9.27;;;;;;;;;;5025534;28;20558;-68
2022/10/04 10:14:39;;;;;;;16.73;10.18;;;;;;;;;;5055771;28;20127;-66
2022/10/04 10:17:08;;;;;;;14.88;9.98;;;;;;;;;;5049606;28;20112;-68
2022/10/04 10:19:49;;;;;;;16.08;8.13;;;;;;;;;;5030079;28;20041;-65
2022/10/04 10:22:34;;;;;;;17.38;8.15;;;;;;;;;;5057576;28;20055;-66
2022/10/04 10:25:06;;;;;;;12.85;6.90;;;;;;;;;;5033058;28;20124;-65
2022/10/04 10:27:39;;;;;;;11.63;6.63;;;;;;;;;;5044288;28;20071;-66
2022/10/04 10:30:23;;;;;;;13.55;6.55;;;;;;;;;;5052212;28;20041;-66
2022/10/04 10:32:52;;;;;;;12.85;7.10;;;;;;;;;;5064892;28;20041;-64
2022/10/04 10:35:28;;;;;;;14.73;6.78;;;;;;;;;;5045012;28;20060;-65
2022/10/04 10:38:17;;;;;;;20.27;7.05;;;;;;;;;;5043651;28;20476;-65
2022/10/04 10:40:44;;;;;;;11.38;6.70;;;;;;;;;;5039457;28;20131;-64
2022/10/04 10:43:11;;;;;;;14.73;6.70;;;;;;;;;;5044110;28;20049;-64
2022/10/04 10:45:39;;;;;;;13.07;7.00;;;;;;;;;;5032596;28;20041;-65
2022/10/04 10:48:18;;;;;;;12.75;6.85;;;;;;;;;;5030939;28;20099;-65
2022/10/04 10:51:01;;;;;;;16.30;6.25;;;;;;;;;;5031040;28;20049;-65
2022/10/04 10:53:38;;;;;;;15.88;5.47;;;;;;;;;;5048329;28;20082;-65
2022/10/04 10:56:10;;;;;;;14.75;7.47;;;;;;;;;;5050157;28;20048;-65
2022/10/04 10:58:56;;;;;;;13.93;7.10;;;;;;;;;;5047013;28;20048;-65
2022/10/04 11:01:46;;;;;;;14.40;6.93;;;;;;;;;;5049559;28;20067;-65
2022/10/04 11:04:18;;;;;;;15.82;7.57;;;;;;;;;;5063723;28;20033;-65
2022/10/04 11:06:57;;;;;;;12.15;7.25;;;;;;;;;;5039119;28;20036;-64
2022/10/04 11:09:31;;;;;;;13.75;7.32;;;;;;;;;;5041871;28;20045;-64
2022/10/04 11:12:25;;;;;;;15.77;7.38;;;;;;;;;;5008045;28;20049;-64
2022/10/04 11:15:15;;;;;;;12.13;7.22;;;;;;;;;;5035494;28;20038;-67
2022/10/04 11:17:55;;;;;;;11.68;6.90;;;;;;;;;;5021035;28;20167;-64
2022/10/04 11:20:41;;;;;;;13.50;7.78;;;;;;;;;;5027434;28;20135;-66
2022/10/04 11:23:26;;;;;;;10.38;6.80;;;;;;;;;;5031639;28;20102;-63
2022/10/04 11:26:11;;;;;;;14.13;7.22;;;;;;;;;;5023054;28;20109;-63
2022/10/04 11:28:37;;;;;;;9.05;6.18;;;;;;;;;;5033687;28;20120;-64
2022/10/04 11:31:14;;;;;;;10.75;5.93;;;;;;;;;;5031058;28;20136;-64
2022/10/04 11:33:40;;;;;;;11.35;6.15;;;;;;;;;;5031901;28;20538;-64
2022/10/04 11:36:24;;;;;;;14.07;6.28;;;;;;;;;;5029115;28;20042;-65
2022/10/04 11:39:02;;;;;;;10.60;6.00;;;;;;;;;;5025198;28;20046;-64
2022/10/04 11:41:49;;;;;;;11.05;5.80;;;;;;;;;;5022049;28;20053;-64
2022/10/04 11:44:25;;;;;;;15.73;6.60;;;;;;;;;;5012064;28;20056;-64
2022/10/04 11:46:59;;;;;;;12.27;6.18;;;;;;;;;;5030006;28;20064;-63
2022/10/04 11:49:28;;;;;;;10.57;5.68;;;;;;;;;;5011012;28;20057;-64
2022/10/04 11:51:55;;;;;;;12.82;6.68;;;;;;;;;;5008259;28;20045;-64
2022/10/04 11:54:30;;;;;;;10.32;6.25;;;;;;;;;;5006171;28;20049;-64
2022/10/04 11:57:08;;;;;;;9.90;6.18;;;;;;;;;;5028258;28;20045;-65
2022/10/04 11:59:53;;;;;;;12.70;7.03;;;;;;;;;;5034615;28;20030;-64
2022/10/04 12:02:22;;;;;;;10.88;7.10;;;;;;;;;;5023391;28;20052;-64
2022/10/04 12:04:52;;;;;;;11.55;6.13;;;;;;;;;;4984773;28;20049;-66
2022/10/04 12:07:37;;;;;;;9.88;6.63;;;;;;;;;;5010319;28;20096;-65
2022/10/04 12:10:04;;;;;;;14.63;7.68;;;;;;;;;;5033323;28;20443;-65
2022/10/04 12:12:35;;;;;;;10.25;5.95;;;;;;;;;;5047996;28;20069;-65
2022/10/04 12:15:21;;;;;;;11.73;6.53;;;;;;;;;;5045390;28;20036;-66
2022/10/04 12:18:08;;;;;;;14.13;6.55;;;;;;;;;;5046518;28;20495;-65
2022/10/04 12:20:42;;;;;;;8.35;5.35;;;;;;;;;;5042626;28;20146;-65
2022/10/04 12:23:20;;;;;;;11.35;6.00;;;;;;;;;;5048723;28;20041;-65
2022/10/04 12:25:52;;;;;;;11.27;5.80;;;;;;;;;;5048164;28;20850;-66
2022/10/04 12:28:33;;;;;;;11.10;5.47;;;;;;;;;;5049016;28;20779;-66
2022/10/04 12:31:02;;;;;;;11.43;5.50;;;;;;;;;;5055880;28;20131;-66
2022/10/04 12:33:44;;;;;;;14.32;7.00;;;;;;;;;;5045177;28;20033;-64
2022/10/04 12:36:13;;;;;;;11.47;6.27;;;;;;;;;;5042898;28;20605;-64
2022/10/04 12:38:56;;;;;;;10.63;6.38;;;;;;;;;;5030883;28;20199;-64
2022/10/04 12:41:22;;;;;;;;;;;;;;;;;;5034374;28;20045;-64
2022/10/04 12:44:00;;;;;;;9.00;5.38;;;;;;;;;;5050406;28;19974;-63
2022/10/04 12:46:43;;;;;;;12.10;6.45;;;;;;;;;;5045289;28;20064;-64
2022/10/04 12:49:09;;;;;;;11.45;5.95;;;;;;;;;;5050952;28;20100;-64
2022/10/04 12:51:55;;;;;;;11.68;6.15;;;;;;;;;;5052209;28;20049;-64
2022/10/04 12:54:43;;;;;;;14.20;7.40;;;;;;;;;;5048504;28;20048;-64
2022/10/04 12:57:24;;;;;;;14.35;6.20;;;;;;;;;;5047186;28;20047;-65
2022/10/04 12:59:54;;;;;;;13.27;6.32;;;;;;;;;;5059535;28;20036;-66
2022/10/04 13:02:39;;;;;;;14.43;5.03;;;;;;;;;;5028021;28;20144;-65
2022/10/04 13:05:06;;;;;;;7.28;4.53;;;;;;;;;;5032935;28;20075;-64
2022/10/04 13:07:35;;;;;;;8.27;4.43;;;;;;;;;;5010763;28;20056;-66
2022/10/04 13:10:04;;;;;;;8.38;4.75;;;;;;;;;;5048225;28;20059;-65
2022/10/04 13:12:40;;;;;;;10.45;4.53;;;;;;;;;;5014717;28;20053;-66
2022/10/04 13:15:18;;;;;;;9.15;4.00;;;;;;;;;;5021960;28;20076;-62
2022/10/04 13:18:04;;;;;;;11.68;4.03;;;;;;;;;;5050247;28;20033;-63
2022/10/04 13:20:49;;;;;;;9.60;4.07;;;;;;;;;;5051972;28;20053;-63
2022/10/04 13:23:21;;;;;;;7.93;3.50;;;;;;;;;;5053246;28;20119;-64
2022/10/04 13:25:47;;;;;;;;;;;;;;;;;;5052498;28;20033;-64
2022/10/04 13:28:13;;;;;;;7.38;3.88;;;;;;;;;;5051897;28;19921;-64
2022/10/04 13:30:59;;;;;;;7.07;3.75;;;;;;;;;;5053540;28;20071;-65
2022/10/04 13:33:25;;;;;;;5.93;3.97;;;;;;;;;;5049999;28;20130;-64
2022/10/04 13:35:53;;;;;;;7.35;3.83;;;;;;;;;;5051143;28;20091;-64
2022/10/04 13:38:39;;;;;;;9.88;3.97;;;;;;;;;;5052409;28;20040;-65
2022/10/04 13:41:14;;;;;;;11.73;4.20;;;;;;;;;;5010794;28;20045;-65
2022/10/04 13:43:59;;;;;;;8.50;3.88;;;;;;;;;;5051904;28;20159;-64
2022/10/04 13:46:40;;;;;;;7.63;3.80;;;;;;;;;;5052447;28;20045;-63
2022/10/04 13:49:24;;;;;;;8.65;4.43;;;;;;;;;;5052108;28;20530;-64
2022/10/04 13:58:34;;;;;;;8.75;4.40;;;;;;;;;;5023146;28;20063;-64
2022/10/04 14:01:19;;;;;;;4.93;3.40;;;;;;;;;;5034312;28;20041;-65
2022/10/04 14:04:04;;;;;;;11.27;3.75;;;;;;;;;;5052028;28;20372;-64
2022/10/04 14:06:50;;;;;;;9.05;4.32;;;;;;;;;;5033851;28;20128;-64
2022/10/04 14:09:25;;;;;;;8.32;3.85;;;;;;;;;;5050791;28;20108;-64
2022/10/04 14:12:15;;;;;;;6.88;3.10;;;;;;;;;;5051175;28;20041;-64
2022/10/04 14:14:54;;;;;;;6.50;3.38;;;;;;;;;;5051583;28;20121;-63
2022/10/04 14:17:40;;;;;;;8.43;4.03;;;;;;;;;;5047880;28;20045;-63
2022/10/04 14:20:24;;;;;;;5.25;2.58;;;;;;;;;;5066178;28;20051;-63
2022/10/04 14:23:01;;;;;;;5.93;2.88;;;;;;;;;;5042494;28;20132;-62
2022/10/04 14:25:50;;;;;;;7.07;3.22;;;;;;;;;;5050166;28;20040;-63
2022/10/04 14:28:43;;;;;;;7.30;3.47;;;;;;;;;;5032102;28;20048;-62
2022/10/04 14:31:26;;;;;;;4.25;2.72;;;;;;;;;;5019751;28;20061;-64
2022/10/04 14:34:14;;;;;;;8.13;3.33;;;;;;;;;;5051000;28;20387;-63
2022/10/04 14:36:49;;;;;;;11.52;3.00;;;;;;;;;;5050841;28;20361;-64
2022/10/04 14:39:21;;;;;;;6.30;2.95;;;;;;;;;;5033358;28;20052;-64
2022/10/04 14:41:47;;;;;;;;;;;;;;;;;;5051758;28;20037;-64
2022/10/04 14:44:40;;;;;;;5.28;2.90;;;;;;;;;;5051440;28;20291;-64
2022/10/04 14:47:05;;;;;;;7.95;3.20;;;;;;;;;;5020366;28;20053;-64
2022/10/04 14:49:46;;;;;;;8.32;3.38;;;;;;;;;;5033986;28;20041;-63
2022/10/04 14:52:19;;;;;;;8.95;3.10;;;;;;;;;;5055761;28;20045;-63
2022/10/04 14:54:54;;;;;;;6.97;2.85;;;;;;;;;;5033257;28;20037;-63
2022/10/04 14:57:38;;;;;;;7.88;3.45;;;;;;;;;;5050753;28;20048;-64
2022/10/04 15:00:08;;;;;;;8.52;3.08;;;;;;;;;;5050857;28;20040;-62
2022/10/04 15:03:03;;;;;;;8.23;3.45;;;;;;;;;;5050940;28;20098;-62
2022/10/04 15:05:48;;;;;;;8.52;3.78;;;;;;;;;;5033268;28;20127;-62
2022/10/04 15:08:20;;;;;;;9.77;3.38;;;;;;;;;;5051079;28;20037;-62
2022/10/04 15:10:54;;;;;;;9.23;3.30;;;;;;;;;;5032561;28;20049;-62
2022/10/04 15:13:20;;;;;;;10.52;4.13;;;;;;;;;;5051140;28;20059;-62
2022/10/04 15:15:46;;;;;;;6.80;3.00;;;;;;;;;;5051211;28;20456;-62
2022/10/04 15:18:26;;;;;;;8.75;3.28;;;;;;;;;;5050682;28;20076;-62
2022/10/04 15:21:04;;;;;;;7.95;3.13;;;;;;;;;;5051165;28;20045;-62
2022/10/04 15:23:46;;;;;;;8.80;3.30;;;;;;;;;;5051139;28;20564;-62
2022/10/04 15:26:13;;;;;;;;;;;;;;;;;;5050874;28;20048;-62